Terminal Aerodrome Forecast
Issued by NWS Medford, OR

Home | Current Version | Previous Version | Text Only | Print | Product List | Glossary On
Versions: 1 2 3 4 5 6 7 8 9 10 11 12 13 14 15 16 17 18 19
000
FTUS46 KMFR 011418 AAB
TAFMFR
TAF AMD
KMFR 011418Z 0114/0212 VRB02KT 6SM BR FEW002 BKN120 OVC200
     FM011600 VRB03KT P6SM BKN050 OVC090
     FM011800 VRB03KT P6SM -SHRA BKN050 OVC070
     FM020000 29003KT P6SM -SHRA BKN035 OVC060
     FM020400 VRB02KT 6SM -RA BR BKN025 OVC060=

USA.gov is the U.S. government's official web portal to all federal, state and local government web resources and services.